createdAt,value
2022-11-16T00:01:06.406Z,5.02
2022-11-16T00:03:33.590Z,5.00
2022-11-16T00:06:03.260Z,5.01
2022-11-16T00:08:31.241Z,4.95
2022-11-16T00:11:05.586Z,4.92
2022-11-16T00:13:33.535Z,4.90
2022-11-16T00:16:00.753Z,4.88
2022-11-16T00:18:28.233Z,4.89
2022-11-16T00:20:55.485Z,4.83
2022-11-16T00:23:22.597Z,4.78
2022-11-16T00:25:49.712Z,4.72
2022-11-16T00:28:16.804Z,4.77
2022-11-16T00:30:43.887Z,4.77
2022-11-16T00:33:14.328Z,4.72
2022-11-16T00:35:41.818Z,4.70
2022-11-16T00:38:08.985Z,4.69
2022-11-16T00:40:35.990Z,4.63
2022-11-16T00:43:03.054Z,4.62
2022-11-16T00:45:30.157Z,4.64
2022-11-16T00:48:00.460Z,4.59
2022-11-16T00:50:28.566Z,4.64
2022-11-16T00:52:55.684Z,4.69
2022-11-16T00:55:23.680Z,4.73
2022-11-16T00:57:50.711Z,4.71
2022-11-16T01:00:19.933Z,4.70
2022-11-16T01:02:47.256Z,4.69
2022-11-16T01:05:14.282Z,4.66
2022-11-16T01:07:41.595Z,4.68
2022-11-16T01:10:13.925Z,4.71
2022-11-16T01:12:43.277Z,4.68
2022-11-16T01:15:10.670Z,4.65
2022-11-16T01:17:38.932Z,4.62
2022-11-16T01:20:07.452Z,4.63
2022-11-16T01:22:35.011Z,4.67
2022-11-16T01:25:02.444Z,4.66
2022-11-16T01:27:29.531Z,4.62
2022-11-16T01:30:00.571Z,4.61
2022-11-16T01:32:27.746Z,4.56
2022-11-16T01:34:54.979Z,4.51
2022-11-16T01:37:28.251Z,4.47
2022-11-16T01:39:55.438Z,4.45
2022-11-16T01:42:27.197Z,4.49
2022-11-16T01:44:57.010Z,4.49
2022-11-16T01:47:24.229Z,4.47
2022-11-16T01:49:54.465Z,4.46
2022-11-16T01:52:29.723Z,4.44
2022-11-16T01:54:57.300Z,4.46
2022-11-16T01:57:31.769Z,4.47
2022-11-16T02:00:10.472Z,4.46
2022-11-16T02:03:03.818Z,4.39
2022-11-16T02:05:47.810Z,4.37
2022-11-16T02:08:53.046Z,4.39
2022-11-16T02:11:45.994Z,4.44
2022-11-16T02:14:21.892Z,4.43
2022-11-16T02:17:04.487Z,4.42
2022-11-16T02:19:49.640Z,4.35
2022-11-16T02:22:37.044Z,4.32
2022-11-16T02:25:23.077Z,4.34
2022-11-16T02:28:13.670Z,4.30
2022-11-16T02:30:43.541Z,4.30
2022-11-16T02:33:12.951Z,4.30
2022-11-16T02:35:43.524Z,4.30
2022-11-16T02:38:30.227Z,4.31
2022-11-16T02:41:01.598Z,4.34
2022-11-16T02:43:56.689Z,4.35
2022-11-16T02:46:29.932Z,4.37
2022-11-16T02:48:59.484Z,4.30
2022-11-16T02:51:27.707Z,4.28
2022-11-16T02:54:02.740Z,4.29
2022-11-16T02:59:48.781Z,4.28
2022-11-16T03:02:16.174Z,4.29
2022-11-16T03:04:48.721Z,4.29
2022-11-16T03:07:18.642Z,4.35
2022-11-16T03:09:48.546Z,4.29
2022-11-16T03:12:18.345Z,4.23
2022-11-16T03:14:58.248Z,4.21
2022-11-16T03:17:28.679Z,4.23
2022-11-16T03:19:59.274Z,4.21
2022-11-16T03:22:28.642Z,4.25
2022-11-16T03:24:55.709Z,4.25
2022-11-16T03:27:53.892Z,4.23
2022-11-16T03:30:24.205Z,4.24
2022-11-16T03:32:56.587Z,4.23
2022-11-16T03:35:25.903Z,4.29
2022-11-16T03:37:54.651Z,4.23
2022-11-16T03:40:24.262Z,4.21
2022-11-16T03:42:52.097Z,4.22
2022-11-16T03:45:20.299Z,4.15
2022-11-16T03:47:49.403Z,4.15
2022-11-16T03:50:16.492Z,4.13
2022-11-16T03:52:44.075Z,4.15
2022-11-16T03:55:13.001Z,4.27
2022-11-16T03:57:42.071Z,4.33
2022-11-16T04:00:09.427Z,4.37
2022-11-16T04:02:43.070Z,4.43
2022-11-16T04:05:34.998Z,4.43
2022-11-16T04:08:20.715Z,4.40
2022-11-16T04:11:06.703Z,4.36
2022-11-16T04:13:53.778Z,4.36
2022-11-16T04:16:39.548Z,4.37
2022-11-16T04:19:28.086Z,4.41
2022-11-16T04:22:37.156Z,4.42
2022-11-16T04:25:12.449Z,4.44
2022-11-16T04:27:58.593Z,4.41
2022-11-16T04:30:26.227Z,4.41
2022-11-16T04:33:12.188Z,4.42
2022-11-16T04:35:58.497Z,4.46
2022-11-16T04:38:25.653Z,4.50
2022-11-16T04:40:53.068Z,4.54
2022-11-16T04:43:22.356Z,4.53
2022-11-16T04:46:07.861Z,4.50
2022-11-16T04:48:39.482Z,4.49
2022-11-16T04:51:07.206Z,4.48
2022-11-16T04:53:35.031Z,4.49
2022-11-16T04:56:11.352Z,4.50
2022-11-16T04:58:38.500Z,4.49
2022-11-16T05:01:05.824Z,4.52
2022-11-16T05:03:33.432Z,4.48
2022-11-16T05:06:01.471Z,4.45
2022-11-16T05:08:29.268Z,4.45
2022-11-16T05:10:56.794Z,4.45
2022-11-16T05:13:23.794Z,4.45
2022-11-16T05:15:52.569Z,4.45
2022-11-16T05:18:19.719Z,4.46
2022-11-16T05:21:02.605Z,4.46
2022-11-16T05:23:53.882Z,4.45
2022-11-16T05:26:23.203Z,4.41
2022-11-16T05:28:51.480Z,4.42
2022-11-16T05:31:18.675Z,4.43
2022-11-16T05:33:45.739Z,4.47
2022-11-16T05:36:14.751Z,4.46
2022-11-16T05:38:41.834Z,4.42
2022-11-16T05:41:09.136Z,4.42
2022-11-16T05:43:36.641Z,4.42
2022-11-16T05:46:12.007Z,4.40
2022-11-16T05:48:39.540Z,4.41
2022-11-16T05:51:07.262Z,4.41
2022-11-16T05:53:35.066Z,4.36
2022-11-16T05:56:02.608Z,4.34
2022-11-16T05:58:32.898Z,4.30
2022-11-16T06:01:00.607Z,4.28
2022-11-16T06:03:28.608Z,4.25
2022-11-16T06:05:56.224Z,4.25
2022-11-16T06:08:25.565Z,4.26
2022-11-16T06:10:54.105Z,4.30
2022-11-16T06:13:21.400Z,4.33
2022-11-16T06:15:51.789Z,4.31
2022-11-16T06:18:19.302Z,4.33
2022-11-16T06:20:47.646Z,4.34
2022-11-16T06:23:14.910Z,4.36
2022-11-16T06:25:42.529Z,4.34
2022-11-16T06:28:10.476Z,4.32
2022-11-16T06:30:40.156Z,4.32
2022-11-16T06:33:08.892Z,4.31
2022-11-16T06:35:37.174Z,4.28
2022-11-16T06:38:04.778Z,4.26
2022-11-16T06:40:33.129Z,4.27
2022-11-16T06:43:01.830Z,4.27
2022-11-16T06:45:28.933Z,4.32
2022-11-16T06:47:58.981Z,4.37
2022-11-16T06:50:26.952Z,4.31
2022-11-16T06:52:54.090Z,4.31
2022-11-16T06:55:22.691Z,4.29
2022-11-16T06:57:49.767Z,4.29
2022-11-16T07:00:18.034Z,4.31
2022-11-16T07:02:46.177Z,4.33
2022-11-16T07:05:16.463Z,4.34
2022-11-16T07:07:44.842Z,4.37
2022-11-16T07:10:12.571Z,4.37
2022-11-16T07:12:39.972Z,4.36
2022-11-16T07:15:10.876Z,4.34
2022-11-16T07:17:41.310Z,4.32
2022-11-16T07:20:08.877Z,4.35
2022-11-16T07:22:35.994Z,4.35
2022-11-16T07:25:03.848Z,4.32
2022-11-16T07:27:30.967Z,4.33
2022-11-16T07:29:58.837Z,4.29
2022-11-16T07:32:49.426Z,4.32
2022-11-16T07:35:26.226Z,4.39
2022-11-16T07:37:53.352Z,4.39
2022-11-16T07:40:20.554Z,4.42
2022-11-16T07:42:47.775Z,4.43
2022-11-16T07:45:35.167Z,4.44
2022-11-16T07:48:07.147Z,4.45
2022-11-16T07:50:52.831Z,4.47
2022-11-16T07:53:21.169Z,4.49
2022-11-16T07:55:51.792Z,4.49
2022-11-16T07:58:19.208Z,4.47
2022-11-16T08:00:46.638Z,4.43
2022-11-16T08:03:21.788Z,4.46
2022-11-16T08:05:57.893Z,4.48
2022-11-16T08:08:24.953Z,4.49
2022-11-16T08:10:52.498Z,4.51
2022-11-16T08:13:19.624Z,4.49
2022-11-16T08:15:47.560Z,4.47
2022-11-16T08:18:14.659Z,4.50
2022-11-16T08:20:41.786Z,4.50
2022-11-16T08:23:08.904Z,4.51
2022-11-16T08:25:37.427Z,4.52
2022-11-16T08:28:04.570Z,4.52
2022-11-16T08:30:32.354Z,4.56
2022-11-16T08:33:00.278Z,4.57
2022-11-16T08:35:27.418Z,4.57
2022-11-16T08:37:54.520Z,4.58
2022-11-16T08:40:21.646Z,4.60
2022-11-16T08:42:48.811Z,4.64
2022-11-16T08:45:17.767Z,4.64
2022-11-16T08:47:45.645Z,4.65
2022-11-16T08:50:12.880Z,4.65
2022-11-16T08:52:39.949Z,4.68
2022-11-16T08:55:07.810Z,4.68
2022-11-16T08:57:35.067Z,4.71
2022-11-16T09:00:06.761Z,4.74
2022-11-16T09:02:33.827Z,4.72
2022-11-16T09:05:01.052Z,4.71
2022-11-16T09:07:28.193Z,4.72
2022-11-16T09:09:55.339Z,4.76
2022-11-16T09:12:22.378Z,4.79
2022-11-16T09:14:49.392Z,4.79
2022-11-16T09:17:20.316Z,4.81
2022-11-16T09:19:49.918Z,4.81
2022-11-16T09:22:16.954Z,4.82
2022-11-16T09:24:44.152Z,4.84
2022-11-16T09:27:11.232Z,4.87
2022-11-16T09:29:38.254Z,4.89
2022-11-16T09:32:05.289Z,4.90
2022-11-16T09:34:35.095Z,4.91
2022-11-16T09:37:02.456Z,4.94
2022-11-16T09:39:32.463Z,4.94
2022-11-16T09:42:21.430Z,4.96
2022-11-16T09:44:48.539Z,4.97
2022-11-16T09:47:17.806Z,4.96
2022-11-16T09:49:51.403Z,4.98
2022-11-16T09:52:26.904Z,5.00
2022-11-16T09:54:55.921Z,4.98
2022-11-16T09:57:27.494Z,5.00
2022-11-16T09:59:57.588Z,5.02
2022-11-16T10:02:32.164Z,5.07
2022-11-16T10:05:14.565Z,5.08
2022-11-16T10:07:46.677Z,5.12
2022-11-16T10:10:15.023Z,5.13
2022-11-16T10:12:48.911Z,5.12
2022-11-16T10:15:41.310Z,5.14
2022-11-16T10:18:15.435Z,5.16
2022-11-16T10:20:49.757Z,5.18
2022-11-16T10:23:32.021Z,5.19
2022-11-16T10:26:17.851Z,5.22
2022-11-16T10:29:05.676Z,5.23
2022-11-16T10:31:38.831Z,5.26
2022-11-16T10:34:07.088Z,5.29
2022-11-16T10:36:35.970Z,5.29
2022-11-16T10:39:03.176Z,5.31
2022-11-16T10:41:32.974Z,5.31
2022-11-16T10:44:00.030Z,5.33
2022-11-16T10:46:37.159Z,5.34
2022-11-16T10:49:04.227Z,5.35
2022-11-16T10:51:31.341Z,5.35
2022-11-16T10:53:58.441Z,5.36
2022-11-16T10:56:37.365Z,5.36
2022-11-16T10:59:05.633Z,5.38
2022-11-16T11:01:40.127Z,5.38
2022-11-16T11:04:13.274Z,5.37
2022-11-16T11:06:40.842Z,5.40
2022-11-16T11:09:14.785Z,5.39
2022-11-16T11:12:00.406Z,5.41
2022-11-16T11:14:27.540Z,5.42
2022-11-16T11:16:54.636Z,5.44
2022-11-16T11:19:26.274Z,5.46
2022-11-16T11:21:57.955Z,5.48
2022-11-16T11:27:13.429Z,5.53
2022-11-16T11:29:42.378Z,5.55
2022-11-16T11:32:23.593Z,5.60
2022-11-16T11:34:52.781Z,5.63
2022-11-16T11:37:25.241Z,5.66
2022-11-16T11:40:17.555Z,5.72
2022-11-16T11:42:51.840Z,5.76
2022-11-16T11:45:19.808Z,5.78
2022-11-16T11:48:13.951Z,5.81
2022-11-16T11:50:53.047Z,5.83
2022-11-16T11:53:29.193Z,5.86
2022-11-16T11:55:58.262Z,5.90
2022-11-16T11:58:30.566Z,5.98
2022-11-16T12:01:18.414Z,6.03
2022-11-16T12:03:55.336Z,6.10
2022-11-16T12:06:43.636Z,6.16
2022-11-16T12:09:17.177Z,6.27
2022-11-16T12:12:01.462Z,6.34
2022-11-16T12:14:47.753Z,6.64
2022-11-16T12:17:27.535Z,6.91
2022-11-16T12:19:59.422Z,7.10
2022-11-16T12:22:40.459Z,7.24
2022-11-16T12:25:27.833Z,7.42
2022-11-16T12:28:13.837Z,7.55
2022-11-16T12:30:59.052Z,7.56
2022-11-16T12:33:38.270Z,7.64
2022-11-16T12:36:17.763Z,7.66
2022-11-16T12:38:44.830Z,7.65
2022-11-16T12:41:11.874Z,7.69
2022-11-16T12:43:53.939Z,7.73
2022-11-16T12:46:33.391Z,7.76
2022-11-16T12:49:17.167Z,7.80
2022-11-16T12:52:03.482Z,7.82
2022-11-16T12:54:48.018Z,7.88
2022-11-16T12:57:34.172Z,7.88
2022-11-16T13:00:01.464Z,7.93
2022-11-16T13:02:30.191Z,7.99
2022-11-16T13:05:02.899Z,8.03
2022-11-16T13:07:39.578Z,8.01
2022-11-16T13:10:13.699Z,8.04
2022-11-16T13:12:41.361Z,8.04
2022-11-16T13:15:19.028Z,8.06
2022-11-16T13:17:50.258Z,8.08
2022-11-16T13:20:17.311Z,8.07
2022-11-16T13:22:51.889Z,8.05
2022-11-16T13:25:24.489Z,8.00
2022-11-16T13:28:04.043Z,8.02
2022-11-16T13:30:56.472Z,8.01
2022-11-16T13:33:32.771Z,8.00
2022-11-16T13:36:19.796Z,7.99
2022-11-16T13:38:53.234Z,7.97
2022-11-16T13:41:37.248Z,7.97
2022-11-16T13:44:13.521Z,7.96
2022-11-16T13:46:55.936Z,7.97
2022-11-16T13:49:26.965Z,7.99
2022-11-16T13:52:07.046Z,7.97
2022-11-16T13:54:47.823Z,7.98
2022-11-16T13:57:23.898Z,7.99
2022-11-16T13:59:55.948Z,8.00
2022-11-16T14:02:31.960Z,8.01
2022-11-16T14:04:59.120Z,8.02
2022-11-16T14:07:30.867Z,8.02
2022-11-16T14:09:58.013Z,8.04
2022-11-16T14:12:37.263Z,8.04
2022-11-16T14:15:13.376Z,8.00
2022-11-16T14:17:59.449Z,7.99
2022-11-16T14:20:44.696Z,8.00
2022-11-16T14:23:26.942Z,8.01
2022-11-16T14:26:06.128Z,8.00
2022-11-16T14:28:33.114Z,8.01
2022-11-16T14:31:00.185Z,8.00
2022-11-16T14:33:35.133Z,7.96
2022-11-16T14:36:04.344Z,7.91
2022-11-16T14:38:38.826Z,7.90
2022-11-16T14:41:07.116Z,7.87
2022-11-16T14:43:38.780Z,7.82
2022-11-16T14:46:20.364Z,7.79
2022-11-16T14:48:47.397Z,7.75
2022-11-16T14:51:14.426Z,7.71
2022-11-16T14:53:45.349Z,7.64
2022-11-16T14:56:13.941Z,7.56
2022-11-16T14:58:50.168Z,7.54
2022-11-16T15:01:17.914Z,7.50
2022-11-16T15:03:47.978Z,7.52
2022-11-16T15:06:15.679Z,7.52
2022-11-16T15:08:48.346Z,7.50
2022-11-16T15:11:47.049Z,7.51
2022-11-16T15:14:22.345Z,7.50
2022-11-16T15:16:51.057Z,7.51
2022-11-16T15:19:18.289Z,7.47
2022-11-16T15:21:55.951Z,7.46
2022-11-16T15:24:30.479Z,7.44
2022-11-16T15:27:21.111Z,7.45
2022-11-16T15:29:48.190Z,7.42
2022-11-16T15:32:18.330Z,7.39
2022-11-16T15:34:53.118Z,7.38
2022-11-16T15:37:29.175Z,7.37
2022-11-16T15:40:00.638Z,7.36
2022-11-16T15:42:28.113Z,7.36
2022-11-16T15:44:55.998Z,7.36
2022-11-16T15:47:23.586Z,7.35
2022-11-16T15:49:52.979Z,7.36
2022-11-16T15:52:38.688Z,7.37
2022-11-16T15:55:05.849Z,7.37
2022-11-16T15:57:32.962Z,7.36
2022-11-16T16:00:00.079Z,7.35
2022-11-16T16:02:28.758Z,7.35
2022-11-16T16:04:55.956Z,7.33
2022-11-16T16:07:36.067Z,7.33
2022-11-16T16:10:18.565Z,7.34
2022-11-16T16:12:52.970Z,7.33
2022-11-16T16:15:23.033Z,7.31
2022-11-16T16:17:50.735Z,7.34
2022-11-16T16:20:19.397Z,7.34
2022-11-16T16:22:46.684Z,7.35
2022-11-16T16:25:30.385Z,7.34
2022-11-16T16:27:58.279Z,7.34
2022-11-16T16:30:25.654Z,7.34
2022-11-16T16:32:52.925Z,7.33
2022-11-16T16:35:21.647Z,7.33
2022-11-16T16:37:50.099Z,7.33
2022-11-16T16:40:17.759Z,7.32
2022-11-16T16:42:48.022Z,7.31
2022-11-16T16:45:18.464Z,7.30
2022-11-16T16:47:45.653Z,7.30
2022-11-16T16:50:12.872Z,7.30
2022-11-16T16:52:39.947Z,7.29
2022-11-16T16:55:07.107Z,7.28
2022-11-16T16:57:34.123Z,7.27
2022-11-16T17:00:01.249Z,7.27
2022-11-16T17:02:28.397Z,7.26
2022-11-16T17:04:55.438Z,7.26
2022-11-16T17:07:22.510Z,7.24
2022-11-16T17:09:49.706Z,7.25
2022-11-16T17:12:16.769Z,7.24
2022-11-16T17:14:51.186Z,7.22
2022-11-16T17:17:19.394Z,7.22
2022-11-16T17:19:46.618Z,7.22
2022-11-16T17:22:13.995Z,7.21
2022-11-16T17:24:41.259Z,7.20
2022-11-16T17:27:08.286Z,7.18
2022-11-16T17:29:35.436Z,7.16
2022-11-16T17:32:04.176Z,7.13
2022-11-16T17:34:31.534Z,7.11
2022-11-16T17:36:58.622Z,7.10
2022-11-16T17:39:25.689Z,7.10
2022-11-16T17:41:52.777Z,7.08
2022-11-16T17:44:21.905Z,7.07
2022-11-16T17:46:49.512Z,7.09
2022-11-16T17:49:16.637Z,7.07
2022-11-16T17:51:44.268Z,7.05
2022-11-16T17:54:11.381Z,7.02
2022-11-16T17:56:38.635Z,6.98
2022-11-16T17:59:05.730Z,6.98
2022-11-16T18:01:33.138Z,6.96
2022-11-16T18:04:01.361Z,6.97
2022-11-16T18:06:28.465Z,6.95
2022-11-16T18:08:56.884Z,6.96
2022-11-16T18:11:25.234Z,6.95
2022-11-16T18:13:53.988Z,6.95
2022-11-16T18:16:22.582Z,6.94
2022-11-16T18:18:54.579Z,6.94
2022-11-16T18:21:21.605Z,6.91
2022-11-16T18:23:48.676Z,6.90
2022-11-16T18:26:17.244Z,6.88
2022-11-16T18:28:45.021Z,6.86
2022-11-16T18:31:13.925Z,6.84
2022-11-16T18:33:41.416Z,6.83
2022-11-16T18:36:08.771Z,6.83
2022-11-16T18:38:36.444Z,6.81
2022-11-16T18:41:06.346Z,6.81
2022-11-16T18:43:35.118Z,6.77
2022-11-16T18:46:02.530Z,6.74
2022-11-16T18:48:29.678Z,6.70
2022-11-16T18:51:03.709Z,6.68
2022-11-16T18:53:32.310Z,6.65
2022-11-16T18:55:59.685Z,6.67
2022-11-16T19:01:18.265Z,6.62
2022-11-16T19:03:45.356Z,6.58
2022-11-16T19:06:15.566Z,6.54
2022-11-16T19:08:42.821Z,6.49
2022-11-16T19:11:13.858Z,6.45
2022-11-16T19:13:42.541Z,6.42
2022-11-16T19:16:10.635Z,6.34
2022-11-16T19:18:37.831Z,6.31
2022-11-16T19:21:06.068Z,6.28
2022-11-16T19:23:40.085Z,6.29
2022-11-16T19:26:07.200Z,6.31
2022-11-16T19:28:38.464Z,6.34
2022-11-16T19:31:13.541Z,6.31
2022-11-16T19:33:40.658Z,6.25
2022-11-16T19:36:08.673Z,6.27
2022-11-16T19:38:36.150Z,6.27
2022-11-16T19:41:03.288Z,6.26
2022-11-16T19:43:30.316Z,6.21
2022-11-16T19:46:01.448Z,6.23
2022-11-16T19:48:29.491Z,6.23
2022-11-16T19:50:56.587Z,6.23
2022-11-16T19:53:23.607Z,6.20
2022-11-16T19:55:54.734Z,6.14
2022-11-16T19:58:21.843Z,6.12
2022-11-16T20:00:48.934Z,6.02
2022-11-16T20:03:15.999Z,5.92
2022-11-16T20:05:43.088Z,5.89
2022-11-16T20:08:10.954Z,5.89
2022-11-16T20:10:38.086Z,5.92
2022-11-16T20:13:05.176Z,5.96
2022-11-16T20:15:32.287Z,5.96
2022-11-16T20:17:59.405Z,5.93
2022-11-16T20:20:26.424Z,5.94
2022-11-16T20:22:53.630Z,5.93
2022-11-16T20:25:20.685Z,5.90
2022-11-16T20:27:47.764Z,5.86
2022-11-16T20:30:14.989Z,5.81
2022-11-16T20:32:42.231Z,5.78
2022-11-16T20:35:09.304Z,5.79
2022-11-16T20:37:36.709Z,5.79
2022-11-16T20:40:05.052Z,5.78
2022-11-16T20:42:32.109Z,5.71
2022-11-16T20:44:59.113Z,5.71
2022-11-16T20:47:27.172Z,5.73
2022-11-16T20:49:54.203Z,5.73
2022-11-16T20:52:21.353Z,5.73
2022-11-16T20:54:48.778Z,5.73
2022-11-16T20:57:15.826Z,5.73
2022-11-16T20:59:42.833Z,5.75
2022-11-16T21:02:10.532Z,5.75
2022-11-16T21:04:37.620Z,5.73
2022-11-16T21:07:04.727Z,5.73
2022-11-16T21:09:51.769Z,5.73
2022-11-16T21:12:42.482Z,5.75
2022-11-16T21:15:10.064Z,5.78
2022-11-16T21:17:37.126Z,5.73
2022-11-16T21:20:26.288Z,5.72
2022-11-16T21:22:51.292Z,5.71
2022-11-16T21:25:18.343Z,5.64
2022-11-16T21:27:46.239Z,5.63
2022-11-16T21:30:13.975Z,5.65
2022-11-16T21:32:41.013Z,5.69
2022-11-16T21:35:08.274Z,5.69
2022-11-16T21:37:35.322Z,5.63
2022-11-16T21:40:02.360Z,5.58
2022-11-16T21:42:29.739Z,5.57
2022-11-16T21:44:56.854Z,5.55
2022-11-16T21:47:23.915Z,5.55
2022-11-16T21:50:16.775Z,5.51
2022-11-16T21:52:38.021Z,5.41
2022-11-16T21:55:05.305Z,5.39
2022-11-16T21:57:32.378Z,5.35
2022-11-16T22:00:01.004Z,5.35
2022-11-16T22:02:28.079Z,5.34
2022-11-16T22:05:13.675Z,5.35
2022-11-16T22:07:41.444Z,5.28
2022-11-16T22:10:09.975Z,5.27
2022-11-16T22:12:37.142Z,5.26
2022-11-16T22:15:05.130Z,5.26
2022-11-16T22:17:32.223Z,5.25
2022-11-16T22:19:59.249Z,5.21
2022-11-16T22:22:26.368Z,5.21
2022-11-16T22:24:53.426Z,5.18
2022-11-16T22:27:20.548Z,5.15
2022-11-16T22:29:47.628Z,5.15
2022-11-16T22:32:14.652Z,5.16
2022-11-16T22:34:41.661Z,5.16
2022-11-16T22:37:08.734Z,5.17
2022-11-16T22:39:37.710Z,5.18
2022-11-16T22:42:04.869Z,5.21
2022-11-16T22:44:31.877Z,5.21
2022-11-16T22:46:58.928Z,5.21
2022-11-16T22:49:26.049Z,5.21
2022-11-16T22:51:53.135Z,5.22
2022-11-16T22:54:23.376Z,5.22
2022-11-16T22:56:54.452Z,5.25
2022-11-16T22:59:21.535Z,5.24
2022-11-16T23:01:48.540Z,5.25
2022-11-16T23:04:15.716Z,5.25
2022-11-16T23:06:42.845Z,5.26
2022-11-16T23:09:09.844Z,5.30
2022-11-16T23:11:55.787Z,5.30
2022-11-16T23:14:41.615Z,5.29
2022-11-16T23:17:08.642Z,5.29
2022-11-16T23:19:54.094Z,5.31
2022-11-16T23:22:39.930Z,5.31
2022-11-16T23:25:26.838Z,5.31
2022-11-16T23:27:56.981Z,5.34
2022-11-16T23:30:24.010Z,5.34
2022-11-16T23:32:51.335Z,5.31
2022-11-16T23:35:18.483Z,5.31
2022-11-16T23:37:54.969Z,5.28
2022-11-16T23:40:23.508Z,5.28
2022-11-16T23:43:10.036Z,5.28
2022-11-16T23:45:37.410Z,5.27
2022-11-16T23:48:05.346Z,5.28
2022-11-16T23:50:32.463Z,5.27
2022-11-16T23:52:59.535Z,5.25
2022-11-16T23:55:26.804Z,5.24
2022-11-16T23:57:53.870Z,5.23
